sensor_id;sensor_type;location;lat;lon;timestamp;pressure;altitude;pressure_sealevel;temperature;humidity
72061;BME280;59925;52.136;5.420;2023-08-17T00:01:31;102248.59;;;17.78;75.93
72061;BME280;59925;52.136;5.420;2023-08-17T00:03:57;102247.50;;;17.79;76.11
72061;BME280;59925;52.136;5.420;2023-08-17T00:06:24;102251.06;;;17.74;76.49
72061;BME280;59925;52.136;5.420;2023-08-17T00:08:52;102240.25;;;17.69;76.69
72061;BME280;59925;52.136;5.420;2023-08-17T00:11:18;102250.84;;;17.71;76.73
72061;BME280;59925;52.136;5.420;2023-08-17T00:13:45;102243.78;;;17.70;76.92
72061;BME280;59925;52.136;5.420;2023-08-17T00:16:11;102238.63;;;17.68;76.93
72061;BME280;59925;52.136;5.420;2023-08-17T00:18:38;102238.13;;;17.66;77.00
72061;BME280;59925;52.136;5.420;2023-08-17T00:21:04;102238.13;;;17.66;76.77
72061;BME280;59925;52.136;5.420;2023-08-17T00:23:31;102241.09;;;17.65;76.79
72061;BME280;59925;52.136;5.420;2023-08-17T00:25:58;102236.84;;;17.58;77.01
72061;BME280;59925;52.136;5.420;2023-08-17T00:28:25;102245.22;;;17.57;77.24
72061;BME280;59925;52.136;5.420;2023-08-17T00:30:51;102235.53;;;17.51;77.70
72061;BME280;59925;52.136;5.420;2023-08-17T00:33:18;102234.44;;;17.52;78.06
72061;BME280;59925;52.136;5.420;2023-08-17T00:35:45;102233.91;;;17.50;77.67
72061;BME280;59925;52.136;5.420;2023-08-17T00:38:12;102240.41;;;17.49;77.59
72061;BME280;59925;52.136;5.420;2023-08-17T00:40:38;102237.94;;;17.52;77.54
72061;BME280;59925;52.136;5.420;2023-08-17T00:43:07;102237.16;;;17.52;77.59
72061;BME280;59925;52.136;5.420;2023-08-17T00:45:34;102236.31;;;17.51;78.06
72061;BME280;59925;52.136;5.420;2023-08-17T00:48:01;102237.16;;;17.52;77.75
72061;BME280;59925;52.136;5.420;2023-08-17T00:50:29;102222.78;;;17.51;77.82
72061;BME280;59925;52.136;5.420;2023-08-17T00:52:56;102228.25;;;17.46;77.94
72061;BME280;59925;52.136;5.420;2023-08-17T00:55:24;102227.41;;;17.45;77.93
72061;BME280;59925;52.136;5.420;2023-08-17T00:57:51;102234.22;;;17.43;78.30
72061;BME280;59925;52.136;5.420;2023-08-17T01:00:19;102229.88;;;17.42;78.33
72061;BME280;59925;52.136;5.420;2023-08-17T01:02:46;102227.44;;;17.40;78.12
72061;BME280;59925;52.136;5.420;2023-08-17T01:05:13;102225.28;;;17.42;77.91
72061;BME280;59925;52.136;5.420;2023-08-17T01:07:39;102226.94;;;17.38;77.99
72061;BME280;59925;52.136;5.420;2023-08-17T01:10:08;102234.31;;;17.33;78.18
72061;BME280;59925;52.136;5.420;2023-08-17T01:12:44;102235.41;;;17.26;78.17
72061;BME280;59925;52.136;5.420;2023-08-17T01:15:17;102228.59;;;17.29;78.16
72061;BME280;59925;52.136;5.420;2023-08-17T01:18:00;102231.63;;;17.27;78.47
72061;BME280;59925;52.136;5.420;2023-08-17T01:20:31;102238.66;;;17.28;78.63
72061;BME280;59925;52.136;5.420;2023-08-17T01:23:04;102233.22;;;17.28;78.48
72061;BME280;59925;52.136;5.420;2023-08-17T01:25:31;102228.91;;;17.27;78.36
72061;BME280;59925;52.136;5.420;2023-08-17T01:28:05;102225.94;;;17.24;78.30
72061;BME280;59925;52.136;5.420;2023-08-17T01:31:03;102222.19;;;17.20;78.55
72061;BME280;59925;52.136;5.420;2023-08-17T01:33:43;102219.16;;;17.21;78.69
72061;BME280;59925;52.136;5.420;2023-08-17T01:36:20;102218.38;;;17.21;78.50
72061;BME280;59925;52.136;5.420;2023-08-17T01:38:51;102219.16;;;17.26;78.33
72061;BME280;59925;52.136;5.420;2023-08-17T01:41:20;102217.28;;;17.22;78.42
72061;BME280;59925;52.136;5.420;2023-08-17T01:43:47;102214.56;;;17.22;78.66
72061;BME280;59925;52.136;5.420;2023-08-17T01:46:15;102219.16;;;17.21;78.33
72061;BME280;59925;52.136;5.420;2023-08-17T01:48:45;102215.69;;;17.15;78.77
72061;BME280;59925;52.136;5.420;2023-08-17T01:51:17;102214.88;;;17.15;78.70
72061;BME280;59925;52.136;5.420;2023-08-17T01:53:45;102212.72;;;17.17;78.60
72061;BME280;59925;52.136;5.420;2023-08-17T01:56:12;102212.19;;;17.15;78.79
72061;BME280;59925;52.136;5.420;2023-08-17T01:58:38;102221.41;;;17.14;78.77
72061;BME280;59925;52.136;5.420;2023-08-17T02:01:05;102211.66;;;17.13;78.84
72061;BME280;59925;52.136;5.420;2023-08-17T02:03:32;102209.50;;;17.10;78.86
72061;BME280;59925;52.136;5.420;2023-08-17T02:05:59;102204.38;;;17.08;78.80
72061;BME280;59925;52.136;5.420;2023-08-17T02:08:25;102214.41;;;17.03;78.66
72061;BME280;59925;52.136;5.420;2023-08-17T02:10:52;102204.69;;;16.96;79.02
72061;BME280;59925;52.136;5.420;2023-08-17T02:13:18;102209.03;;;16.92;78.89
72061;BME280;59925;52.136;5.420;2023-08-17T02:15:46;102205.50;;;16.92;78.86
72061;BME280;59925;52.136;5.420;2023-08-17T02:18:13;102206.63;;;16.85;79.21
72061;BME280;59925;52.136;5.420;2023-08-17T02:20:39;102214.78;;;16.80;79.17
72061;BME280;59925;52.136;5.420;2023-08-17T02:23:06;102222.34;;;16.78;79.42
72061;BME280;59925;52.136;5.420;2023-08-17T02:25:32;102219.94;;;16.77;79.30
72061;BME280;59925;52.136;5.420;2023-08-17T02:28:02;102221.81;;;16.76;79.70
72061;BME280;59925;52.136;5.420;2023-08-17T02:30:30;102220.50;;;16.74;79.85
72061;BME280;59925;52.136;5.420;2023-08-17T02:32:57;102219.69;;;16.73;79.64
72061;BME280;59925;52.136;5.420;2023-08-17T02:35:24;102213.75;;;16.71;79.74
72061;BME280;59925;52.136;5.420;2023-08-17T02:37:50;102209.41;;;16.70;80.10
72061;BME280;59925;52.136;5.420;2023-08-17T02:40:17;102209.13;;;16.72;80.08
72061;BME280;59925;52.136;5.420;2023-08-17T02:42:44;102211.28;;;16.69;80.16
72061;BME280;59925;52.136;5.420;2023-08-17T02:45:10;102204.53;;;16.72;80.38
72061;BME280;59925;52.136;5.420;2023-08-17T02:47:37;102203.44;;;16.73;80.51
72061;BME280;59925;52.136;5.420;2023-08-17T02:50:04;102194.75;;;16.76;80.63
72061;BME280;59925;52.136;5.420;2023-08-17T02:52:30;102200.97;;;16.77;80.54
72061;BME280;59925;52.136;5.420;2023-08-17T02:54:57;102192.84;;;16.77;80.53
72061;BME280;59925;52.136;5.420;2023-08-17T02:57:23;102195.03;;;16.75;80.58
72061;BME280;59925;52.136;5.420;2023-08-17T02:59:50;102193.66;;;16.77;80.50
72061;BME280;59925;52.136;5.420;2023-08-17T03:02:17;102197.44;;;16.76;80.38
72061;BME280;59925;52.136;5.420;2023-08-17T03:04:43;102197.19;;;16.78;80.50
72061;BME280;59925;52.136;5.420;2023-08-17T03:07:10;102193.69;;;16.72;80.52
72061;BME280;59925;52.136;5.420;2023-08-17T03:09:36;102192.84;;;16.77;80.55
72061;BME280;59925;52.136;5.420;2023-08-17T03:12:03;102193.13;;;16.75;80.62
72061;BME280;59925;52.136;5.420;2023-08-17T03:14:30;102191.00;;;16.72;80.67
72061;BME280;59925;52.136;5.420;2023-08-17T03:16:56;102194.22;;;16.74;80.76
72061;BME280;59925;52.136;5.420;2023-08-17T03:19:23;102196.91;;;16.74;80.62
72061;BME280;59925;52.136;5.420;2023-08-17T03:21:49;102198.03;;;16.73;80.69
72061;BME280;59925;52.136;5.420;2023-08-17T03:24:15;102196.91;;;16.74;80.64
72061;BME280;59925;52.136;5.420;2023-08-17T03:26:42;102189.91;;;16.73;80.54
72061;BME280;59925;52.136;5.420;2023-08-17T03:29:09;102187.47;;;16.72;80.27
72061;BME280;59925;52.136;5.420;2023-08-17T03:31:36;102188.28;;;16.72;80.42
72061;BME280;59925;52.136;5.420;2023-08-17T03:34:03;102191.53;;;16.69;80.59
72061;BME280;59925;52.136;5.420;2023-08-17T03:36:29;102189.66;;;16.64;80.46
72061;BME280;59925;52.136;5.420;2023-08-17T03:38:56;102186.38;;;16.67;80.88
72061;BME280;59925;52.136;5.420;2023-08-17T03:41:22;102183.41;;;16.69;80.60
72061;BME280;59925;52.136;5.420;2023-08-17T03:43:51;102184.78;;;16.66;80.56
72061;BME280;59925;52.136;5.420;2023-08-17T03:46:18;102187.75;;;16.65;80.74
72061;BME280;59925;52.136;5.420;2023-08-17T03:48:44;102180.47;;;16.65;80.89
72061;BME280;59925;52.136;5.420;2023-08-17T03:51:11;102186.97;;;16.64;80.77
72061;BME280;59925;52.136;5.420;2023-08-17T03:53:37;102191.31;;;16.60;80.73
72061;BME280;59925;52.136;5.420;2023-08-17T03:56:04;102178.56;;;16.61;80.86
72061;BME280;59925;52.136;5.420;2023-08-17T03:58:31;102180.47;;;16.60;81.05
72061;BME280;59925;52.136;5.420;2023-08-17T04:01:01;102181.84;;;16.58;81.21
72061;BME280;59925;52.136;5.420;2023-08-17T04:03:28;102180.22;;;16.57;80.90
72061;BME280;59925;52.136;5.420;2023-08-17T04:05:55;102176.69;;;16.56;81.02
72061;BME280;59925;52.136;5.420;2023-08-17T04:08:21;102185.38;;;16.53;80.99
72061;BME280;59925;52.136;5.420;2023-08-17T04:10:48;102170.78;;;16.54;81.36
72061;BME280;59925;52.136;5.420;2023-08-17T04:13:14;102188.88;;;16.53;81.03
72061;BME280;59925;52.136;5.420;2023-08-17T04:15:41;102192.97;;;16.51;81.40
72061;BME280;59925;52.136;5.420;2023-08-17T04:18:07;102187.00;;;16.54;81.21
72061;BME280;59925;52.136;5.420;2023-08-17T04:20:33;102187.00;;;16.54;81.33
72061;BME280;59925;52.136;5.420;2023-08-17T04:23:00;102192.13;;;16.55;81.15
72061;BME280;59925;52.136;5.420;2023-08-17T04:25:26;102187.81;;;16.54;81.17
72061;BME280;59925;52.136;5.420;2023-08-17T04:27:53;102179.16;;;16.52;81.35
72061;BME280;59925;52.136;5.420;2023-08-17T04:30:19;102187.00;;;16.54;80.95
72061;BME280;59925;52.136;5.420;2023-08-17T04:32:46;102179.97;;;16.53;80.86
72061;BME280;59925;52.136;5.420;2023-08-17T04:35:21;102187.81;;;16.54;80.94
72061;BME280;59925;52.136;5.420;2023-08-17T04:37:48;102183.19;;;16.55;81.10
72061;BME280;59925;52.136;5.420;2023-08-17T04:40:15;102176.19;;;16.54;81.13
72061;BME280;59925;52.136;5.420;2023-08-17T04:42:41;102184.56;;;16.52;81.34
72061;BME280;59925;52.136;5.420;2023-08-17T04:45:08;102183.19;;;16.55;81.51
72061;BME280;59925;52.136;5.420;2023-08-17T04:47:35;102181.03;;;16.57;81.34
72061;BME280;59925;52.136;5.420;2023-08-17T04:50:01;102173.72;;;16.58;81.28
72061;BME280;59925;52.136;5.420;2023-08-17T04:52:28;102172.88;;;16.62;81.06
72061;BME280;59925;52.136;5.420;2023-08-17T04:54:54;102170.97;;;16.63;81.17
72061;BME280;59925;52.136;5.420;2023-08-17T04:57:21;102171.81;;;16.63;81.23
72061;BME280;59925;52.136;5.420;2023-08-17T04:59:47;102173.44;;;16.64;81.10
72061;BME280;59925;52.136;5.420;2023-08-17T05:02:13;102181.25;;;16.66;81.08
72061;BME280;59925;52.136;5.420;2023-08-17T05:04:40;102174.22;;;16.65;80.87
72061;BME280;59925;52.136;5.420;2023-08-17T05:07:06;102172.34;;;16.65;81.15
72061;BME280;59925;52.136;5.420;2023-08-17T05:09:33;102173.97;;;16.66;81.00
72061;BME280;59925;52.136;5.420;2023-08-17T05:11:59;102163.13;;;16.66;81.24
72061;BME280;59925;52.136;5.420;2023-08-17T05:14:26;102168.53;;;16.66;81.25
72061;BME280;59925;52.136;5.420;2023-08-17T05:16:52;102166.34;;;16.68;81.21
72061;BME280;59925;52.136;5.420;2023-08-17T05:19:19;102163.91;;;16.72;80.91
72061;BME280;59925;52.136;5.420;2023-08-17T05:21:46;102166.09;;;16.70;80.90
72061;BME280;59925;52.136;5.420;2023-08-17T05:24:12;102166.88;;;16.70;81.01
72061;BME280;59925;52.136;5.420;2023-08-17T05:26:39;102161.75;;;16.69;81.00
72061;BME280;59925;52.136;5.420;2023-08-17T05:29:05;102172.84;;;16.73;81.16
72061;BME280;59925;52.136;5.420;2023-08-17T05:31:31;102171.97;;;16.82;80.95
72061;BME280;59925;52.136;5.420;2023-08-17T05:33:58;102168.44;;;16.87;80.97
72061;BME280;59925;52.136;5.420;2023-08-17T05:36:25;102166.50;;;16.93;80.84
72061;BME280;59925;52.136;5.420;2023-08-17T05:38:51;102171.66;;;16.94;80.78
72061;BME280;59925;52.136;5.420;2023-08-17T05:41:18;102174.16;;;17.25;81.05
72061;BME280;59925;52.136;5.420;2023-08-17T05:43:44;102171.91;;;18.26;79.29
72061;BME280;59925;52.136;5.420;2023-08-17T05:46:11;102171.13;;;19.07;75.75
72061;BME280;59925;52.136;5.420;2023-08-17T05:48:37;102172.34;;;19.01;74.25
72061;BME280;59925;52.136;5.420;2023-08-17T05:51:04;102176.13;;;18.81;74.26
72061;BME280;59925;52.136;5.420;2023-08-17T05:53:30;102174.00;;;18.97;74.33
72061;BME280;59925;52.136;5.420;2023-08-17T05:55:56;102173.03;;;19.59;73.45
72061;BME280;59925;52.136;5.420;2023-08-17T05:58:23;102178.88;;;20.27;71.22
72061;BME280;59925;52.136;5.420;2023-08-17T06:00:50;102173.56;;;20.87;69.18
72061;BME280;59925;52.136;5.420;2023-08-17T06:03:17;102184.31;;;21.06;67.16
72061;BME280;59925;52.136;5.420;2023-08-17T06:05:44;102183.06;;;20.89;67.22
72061;BME280;59925;52.136;5.420;2023-08-17T06:08:10;102191.09;;;20.30;67.84
72061;BME280;59925;52.136;5.420;2023-08-17T06:10:37;102200.63;;;19.52;69.40
72061;BME280;59925;52.136;5.420;2023-08-17T06:13:03;102208.38;;;19.07;71.15
72061;BME280;59925;52.136;5.420;2023-08-17T06:15:30;102207.84;;;18.86;72.09
72061;BME280;59925;52.136;5.420;2023-08-17T06:17:56;102201.63;;;18.61;72.80
72061;BME280;59925;52.136;5.420;2023-08-17T06:20:23;102210.13;;;18.54;73.62
72061;BME280;59925;52.136;5.420;2023-08-17T06:22:49;102209.84;;;18.56;73.83
72061;BME280;59925;52.136;5.420;2023-08-17T06:25:16;102216.97;;;18.51;74.14
72061;BME280;59925;52.136;5.420;2023-08-17T06:27:43;102211.81;;;18.50;74.63
72061;BME280;59925;52.136;5.420;2023-08-17T06:30:11;102214.53;;;18.50;75.07
72061;BME280;59925;52.136;5.420;2023-08-17T06:32:38;102207.94;;;18.56;75.33
72061;BME280;59925;52.136;5.420;2023-08-17T06:35:05;102216.88;;;18.57;75.50
72061;BME280;59925;52.136;5.420;2023-08-17T06:37:32;102215.16;;;18.42;75.36
72061;BME280;59925;52.136;5.420;2023-08-17T06:39:59;102213.59;;;18.35;75.82
72061;BME280;59925;52.136;5.420;2023-08-17T06:42:25;102213.91;;;18.34;76.32
72061;BME280;59925;52.136;5.420;2023-08-17T06:44:52;102219.31;;;18.34;76.19
72061;BME280;59925;52.136;5.420;2023-08-17T06:47:18;102208.69;;;18.37;76.11
72061;BME280;59925;52.136;5.420;2023-08-17T06:49:45;102221.19;;;18.38;76.44
72061;BME280;59925;52.136;5.420;2023-08-17T06:52:11;102212.72;;;18.40;76.42
72061;BME280;59925;52.136;5.420;2023-08-17T06:54:38;102208.34;;;18.44;76.00
72061;BME280;59925;52.136;5.420;2023-08-17T06:57:04;102221.66;;;18.46;76.07
72061;BME280;59925;52.136;5.420;2023-08-17T06:59:31;102223.59;;;18.40;76.05
72061;BME280;59925;52.136;5.420;2023-08-17T07:01:59;102216.50;;;18.44;75.89
72061;BME280;59925;52.136;5.420;2023-08-17T07:04:26;102222.66;;;18.50;75.90
72061;BME280;59925;52.136;5.420;2023-08-17T07:06:53;102218.06;;;18.50;75.91
72061;BME280;59925;52.136;5.420;2023-08-17T07:09:19;102220.19;;;18.53;76.01
72061;BME280;59925;52.136;5.420;2023-08-17T07:11:47;102221.97;;;18.63;76.27
72061;BME280;59925;52.136;5.420;2023-08-17T07:14:13;102224.91;;;18.67;75.83
72061;BME280;59925;52.136;5.420;2023-08-17T07:16:39;102220.34;;;18.62;75.71
72061;BME280;59925;52.136;5.420;2023-08-17T07:19:06;102221.00;;;18.54;75.57
72061;BME280;59925;52.136;5.420;2023-08-17T07:21:33;102221.41;;;18.66;75.85
72061;BME280;59925;52.136;5.420;2023-08-17T07:24:11;102220.75;;;18.75;75.36
72061;BME280;59925;52.136;5.420;2023-08-17T07:26:37;102212.22;;;18.81;75.38
72061;BME280;59925;52.136;5.420;2023-08-17T07:29:04;102213.09;;;19.01;76.03
72061;BME280;59925;52.136;5.420;2023-08-17T07:31:30;102221.81;;;19.17;74.74
72061;BME280;59925;52.136;5.420;2023-08-17T07:34:00;102217.78;;;19.34;74.76
72061;BME280;59925;52.136;5.420;2023-08-17T07:36:27;102212.09;;;19.49;73.92
72061;BME280;59925;52.136;5.420;2023-08-17T07:38:53;102215.38;;;19.65;73.46
72061;BME280;59925;52.136;5.420;2023-08-17T07:41:20;102212.94;;;19.97;72.62
72061;BME280;59925;52.136;5.420;2023-08-17T07:43:46;102210.97;;;20.30;71.81
72061;BME280;59925;52.136;5.420;2023-08-17T07:46:13;102211.03;;;20.53;71.61
72061;BME280;59925;52.136;5.420;2023-08-17T07:48:40;102207.72;;;20.70;71.58
72061;BME280;59925;52.136;5.420;2023-08-17T07:51:06;102216.97;;;20.97;70.90
72061;BME280;59925;52.136;5.420;2023-08-17T07:53:33;102205.47;;;21.23;68.98
72061;BME280;59925;52.136;5.420;2023-08-17T07:55:59;102213.78;;;21.40;69.69
72061;BME280;59925;52.136;5.420;2023-08-17T07:58:26;102214.84;;;21.53;68.21
72061;BME280;59925;52.136;5.420;2023-08-17T08:00:52;102219.47;;;21.53;69.07
72061;BME280;59925;52.136;5.420;2023-08-17T08:03:19;102218.13;;;21.64;68.26
72061;BME280;59925;52.136;5.420;2023-08-17T08:05:45;102218.41;;;21.85;68.50
72061;BME280;59925;52.136;5.420;2023-08-17T08:08:12;102220.28;;;21.76;67.07
72061;BME280;59925;52.136;5.420;2023-08-17T08:10:39;102222.19;;;21.98;67.55
72061;BME280;59925;52.136;5.420;2023-08-17T08:13:06;102222.88;;;22.13;66.41
72061;BME280;59925;52.136;5.420;2023-08-17T08:15:33;102215.34;;;22.18;65.91
72061;BME280;59925;52.136;5.420;2023-08-17T08:18:00;102204.56;;;22.13;66.41
72061;BME280;59925;52.136;5.420;2023-08-17T08:20:26;102218.59;;;22.20;65.32
72061;BME280;59925;52.136;5.420;2023-08-17T08:22:53;102218.19;;;22.04;65.73
72061;BME280;59925;52.136;5.420;2023-08-17T08:25:19;102216.53;;;21.95;64.25
72061;BME280;59925;52.136;5.420;2023-08-17T08:27:46;102209.75;;;21.83;65.91
72061;BME280;59925;52.136;5.420;2023-08-17T08:30:12;102206.25;;;21.92;66.74
72061;BME280;59925;52.136;5.420;2023-08-17T08:32:39;102209.53;;;22.02;66.66
72061;BME280;59925;52.136;5.420;2023-08-17T08:35:05;102212.47;;;22.24;66.12
72061;BME280;59925;52.136;5.420;2023-08-17T08:37:32;102217.44;;;22.13;65.58
72061;BME280;59925;52.136;5.420;2023-08-17T08:39:59;102212.25;;;22.11;66.39
72061;BME280;59925;52.136;5.420;2023-08-17T08:42:25;102214.19;;;22.11;66.09
72061;BME280;59925;52.136;5.420;2023-08-17T08:44:52;102216.41;;;22.00;65.34
72061;BME280;59925;52.136;5.420;2023-08-17T08:47:20;102209.28;;;21.90;65.90
72061;BME280;59925;52.136;5.420;2023-08-17T08:52:23;102208.16;;;21.91;66.02
72061;BME280;59925;52.136;5.420;2023-08-17T08:54:54;102209.59;;;21.88;66.11
72061;BME280;59925;52.136;5.420;2023-08-17T08:57:23;102198.84;;;21.92;65.81
72061;BME280;59925;52.136;5.420;2023-08-17T08:59:51;102197.72;;;21.93;65.63
72061;BME280;59925;52.136;5.420;2023-08-17T09:02:23;102201.09;;;21.90;65.85
72061;BME280;59925;52.136;5.420;2023-08-17T09:04:50;102202.91;;;21.72;66.15
72061;BME280;59925;52.136;5.420;2023-08-17T09:07:17;102203.41;;;21.74;65.95
72061;BME280;59925;52.136;5.420;2023-08-17T09:09:44;102194.78;;;21.81;65.56
72061;BME280;59925;52.136;5.420;2023-08-17T09:12:11;102197.69;;;21.84;66.52
72061;BME280;59925;52.136;5.420;2023-08-17T09:14:39;102196.78;;;21.98;66.40
72061;BME280;59925;52.136;5.420;2023-08-17T09:17:07;102200.75;;;22.23;66.93
72061;BME280;59925;52.136;5.420;2023-08-17T09:19:34;102186.38;;;22.49;64.98
72061;BME280;59925;52.136;5.420;2023-08-17T09:22:00;102190.59;;;22.73;64.39
72061;BME280;59925;52.136;5.420;2023-08-17T09:24:37;102190.59;;;22.73;65.23
72061;BME280;59925;52.136;5.420;2023-08-17T09:27:03;102190.75;;;22.76;64.49
72061;BME280;59925;52.136;5.420;2023-08-17T09:29:36;102181.28;;;22.74;63.66
72061;BME280;59925;52.136;5.420;2023-08-17T09:32:06;102190.59;;;22.81;64.93
72061;BME280;59925;52.136;5.420;2023-08-17T09:34:33;102184.50;;;22.85;64.94
72061;BME280;59925;52.136;5.420;2023-08-17T09:37:03;102181.94;;;22.88;63.12
72061;BME280;59925;52.136;5.420;2023-08-17T09:39:32;102184.03;;;22.83;64.13
72061;BME280;59925;52.136;5.420;2023-08-17T09:41:59;102181.78;;;22.85;64.36
72061;BME280;59925;52.136;5.420;2023-08-17T09:44:27;102183.53;;;22.80;63.99
72061;BME280;59925;52.136;5.420;2023-08-17T09:46:56;102176.31;;;22.85;64.30
72061;BME280;59925;52.136;5.420;2023-08-17T09:49:24;102170.00;;;22.84;64.53
72061;BME280;59925;52.136;5.420;2023-08-17T09:51:51;102168.59;;;22.87;63.79
72061;BME280;59925;52.136;5.420;2023-08-17T09:54:22;102163.13;;;22.87;63.62
72061;BME280;59925;52.136;5.420;2023-08-17T09:56:53;102171.16;;;22.92;64.22
72061;BME280;59925;52.136;5.420;2023-08-17T09:59:20;102172.91;;;22.96;63.51
72061;BME280;59925;52.136;5.420;2023-08-17T10:01:48;102169.53;;;22.91;63.58
72061;BME280;59925;52.136;5.420;2023-08-17T10:04:23;102174.38;;;22.94;63.46
72061;BME280;59925;52.136;5.420;2023-08-17T10:06:58;102169.38;;;22.87;63.40
72061;BME280;59925;52.136;5.420;2023-08-17T10:09:30;102164.72;;;22.70;63.44
72061;BME280;59925;52.136;5.420;2023-08-17T10:12:01;102162.44;;;22.55;63.89
72061;BME280;59925;52.136;5.420;2023-08-17T10:14:34;102162.28;;;22.51;63.67
72061;BME280;59925;52.136;5.420;2023-08-17T10:17:07;102156.31;;;22.49;64.04
72061;BME280;59925;52.136;5.420;2023-08-17T10:20:06;102152.31;;;22.46;63.90
72061;BME280;59925;52.136;5.420;2023-08-17T10:22:44;102150.31;;;22.38;64.31
72061;BME280;59925;52.136;5.420;2023-08-17T10:25:12;102149.22;;;22.39;64.14
72061;BME280;59925;52.136;5.420;2023-08-17T10:27:41;102155.31;;;22.36;64.76
72061;BME280;59925;52.136;5.420;2023-08-17T10:30:09;102149.75;;;22.50;65.04
72061;BME280;59925;52.136;5.420;2023-08-17T10:32:37;102148.94;;;22.67;65.46
72061;BME280;59925;52.136;5.420;2023-08-17T10:35:05;102149.94;;;22.80;64.07
72061;BME280;59925;52.136;5.420;2023-08-17T10:37:32;102146.88;;;22.73;64.04
72061;BME280;59925;52.136;5.420;2023-08-17T10:39:59;102151.06;;;22.79;65.15
72061;BME280;59925;52.136;5.420;2023-08-17T10:42:35;102150.09;;;22.84;64.99
72061;BME280;59925;52.136;5.420;2023-08-17T10:47:48;102154.13;;;22.69;64.83
72061;BME280;59925;52.136;5.420;2023-08-17T10:50:22;102158.59;;;22.64;64.45
72061;BME280;59925;52.136;5.420;2023-08-17T10:52:50;102158.44;;;22.61;65.10
72061;BME280;59925;52.136;5.420;2023-08-17T10:55:39;102160.69;;;22.68;65.19
72061;BME280;59925;52.136;5.420;2023-08-17T10:58:08;102159.25;;;22.79;64.72
72061;BME280;59925;52.136;5.420;2023-08-17T11:00:41;102167.13;;;22.80;64.60
72061;BME280;59925;52.136;5.420;2023-08-17T11:03:19;102153.31;;;22.77;64.40
72061;BME280;59925;52.136;5.420;2023-08-17T11:11:23;102137.69;;;22.86;64.18
72061;BME280;59925;52.136;5.420;2023-08-17T11:13:52;102141.56;;;22.94;64.58
72061;BME280;59925;52.136;5.420;2023-08-17T11:16:23;102142.53;;;23.16;65.17
72061;BME280;59925;52.136;5.420;2023-08-17T11:18:49;102147.47;;;23.40;64.16
72061;BME280;59925;52.136;5.420;2023-08-17T11:21:17;102139.28;;;23.22;62.90
72061;BME280;59925;52.136;5.420;2023-08-17T11:23:45;102143.78;;;23.18;62.96
72061;BME280;59925;52.136;5.420;2023-08-17T11:26:15;102144.91;;;23.17;63.76
72061;BME280;59925;52.136;5.420;2023-08-17T11:28:42;102143.78;;;23.18;63.30
72061;BME280;59925;52.136;5.420;2023-08-17T11:31:12;102149.41;;;23.13;63.51
72061;BME280;59925;52.136;5.420;2023-08-17T11:33:39;102142.34;;;23.30;63.84
72061;BME280;59925;52.136;5.420;2023-08-17T11:36:07;102149.09;;;23.32;62.63
72061;BME280;59925;52.136;5.420;2023-08-17T11:38:39;102152.97;;;23.31;62.99
72061;BME280;59925;52.136;5.420;2023-08-17T11:41:06;102157.44;;;23.36;63.04
72061;BME280;59925;52.136;5.420;2023-08-17T11:43:35;102146.03;;;23.16;62.39
72061;BME280;59925;52.136;5.420;2023-08-17T11:46:02;102154.44;;;23.02;63.45
72061;BME280;59925;52.136;5.420;2023-08-17T11:48:30;102148.47;;;23.00;63.00
72061;BME280;59925;52.136;5.420;2023-08-17T11:51:02;102150.41;;;23.08;63.79
72061;BME280;59925;52.136;5.420;2023-08-17T11:53:36;102138.63;;;23.34;63.51
72061;BME280;59925;52.136;5.420;2023-08-17T11:56:06;102138.72;;;23.64;62.98
72061;BME280;59925;52.136;5.420;2023-08-17T11:58:42;102135.25;;;23.76;62.34
72061;BME280;59925;52.136;5.420;2023-08-17T12:01:11;102138.69;;;23.73;62.38
72061;BME280;59925;52.136;5.420;2023-08-17T12:03:39;102131.16;;;23.61;62.54
72061;BME280;59925;52.136;5.420;2023-08-17T12:06:06;102137.16;;;23.37;61.94
72061;BME280;59925;52.136;5.420;2023-08-17T12:08:34;102140.56;;;23.07;63.23
72061;BME280;59925;52.136;5.420;2023-08-17T12:11:01;102142.69;;;23.02;62.61
72061;BME280;59925;52.136;5.420;2023-08-17T12:13:33;102138.66;;;22.90;62.93
72061;BME280;59925;52.136;5.420;2023-08-17T12:16:00;102139.50;;;22.82;63.06
72061;BME280;59925;52.136;5.420;2023-08-17T12:18:27;102134.97;;;22.77;64.54
72061;BME280;59925;52.136;5.420;2023-08-17T12:20:54;102137.69;;;22.77;64.62
72061;BME280;59925;52.136;5.420;2023-08-17T12:23:21;102135.91;;;22.64;64.39
72061;BME280;59925;52.136;5.420;2023-08-17T12:25:53;102138.38;;;22.74;64.70
72061;BME280;59925;52.136;5.420;2023-08-17T12:28:20;102125.63;;;22.96;65.30
72061;BME280;59925;52.136;5.420;2023-08-17T12:30:46;102135.44;;;23.06;64.12
72061;BME280;59925;52.136;5.420;2023-08-17T12:33:13;102129.84;;;22.93;63.91
72061;BME280;59925;52.136;5.420;2023-08-17T12:35:39;102128.72;;;22.86;64.39
72061;BME280;59925;52.136;5.420;2023-08-17T12:38:06;102135.63;;;22.74;63.82
72061;BME280;59925;52.136;5.420;2023-08-17T12:40:32;102134.66;;;22.70;64.11
72061;BME280;59925;52.136;5.420;2023-08-17T12:42:59;102136.25;;;22.54;64.11
72061;BME280;59925;52.136;5.420;2023-08-17T12:45:25;102140.41;;;22.42;64.95
72061;BME280;59925;52.136;5.420;2023-08-17T12:47:54;102136.19;;;22.27;65.02
72061;BME280;59925;52.136;5.420;2023-08-17T12:50:20;102145.03;;;22.33;65.50
72061;BME280;59925;52.136;5.420;2023-08-17T12:52:47;102136.97;;;22.28;65.98
72061;BME280;59925;52.136;5.420;2023-08-17T12:55:13;102138.91;;;22.27;65.68
72061;BME280;59925;52.136;5.420;2023-08-17T12:57:40;102138.72;;;22.24;66.06
72061;BME280;59925;52.136;5.420;2023-08-17T13:00:07;102142.59;;;22.31;65.95
72061;BME280;59925;52.136;5.420;2023-08-17T13:02:35;102148.09;;;22.40;66.83
72061;BME280;59925;52.136;5.420;2023-08-17T13:05:01;102142.78;;;22.35;66.61